sensor_id;sensor_type;location;lat;lon;timestamp;pressure;altitude;pressure_sealevel;temperature;humidity
21960;BME280;11144;43.030;25.108;2024-03-06T00:00:52;99270.47;;;8.06;77.20
21960;BME280;11144;43.030;25.108;2024-03-06T00:02:25;99264.94;;;8.01;77.07
21960;BME280;11144;43.030;25.108;2024-03-06T00:03:58;99268.53;;;8.00;77.20
21960;BME280;11144;43.030;25.108;2024-03-06T00:05:31;99267.38;;;7.95;77.37
21960;BME280;11144;43.030;25.108;2024-03-06T00:07:05;99257.31;;;7.92;77.58
21960;BME280;11144;43.030;25.108;2024-03-06T00:08:38;99264.78;;;7.95;77.30
21960;BME280;11144;43.030;25.108;2024-03-06T00:10:11;99257.28;;;8.00;77.27
21960;BME280;11144;43.030;25.108;2024-03-06T00:11:44;99257.78;;;7.95;77.36
21960;BME280;11144;43.030;25.108;2024-03-06T00:13:17;99261.19;;;8.04;77.15
21960;BME280;11144;43.030;25.108;2024-03-06T00:14:50;99262.00;;;8.04;77.44
21960;BME280;11144;43.030;25.108;2024-03-06T00:16:24;99268.84;;;8.05;77.56
21960;BME280;11144;43.030;25.108;2024-03-06T00:17:56;99270.97;;;8.02;77.34
21960;BME280;11144;43.030;25.108;2024-03-06T00:19:30;99256.13;;;7.94;77.77
21960;BME280;11144;43.030;25.108;2024-03-06T00:21:03;99269.19;;;8.02;77.48
21960;BME280;11144;43.030;25.108;2024-03-06T00:22:38;99268.19;;;8.03;77.34
21960;BME280;11144;43.030;25.108;2024-03-06T00:24:11;99257.31;;;7.92;77.68
21960;BME280;11144;43.030;25.108;2024-03-06T00:25:45;99265.75;;;8.02;77.93
21960;BME280;11144;43.030;25.108;2024-03-06T00:27:17;99263.97;;;8.02;77.85
21960;BME280;11144;43.030;25.108;2024-03-06T00:28:51;99260.38;;;7.95;77.82
21960;BME280;11144;43.030;25.108;2024-03-06T00:30:23;99262.81;;;7.97;77.57
21960;BME280;11144;43.030;25.108;2024-03-06T00:31:56;99263.63;;;7.97;77.95
21960;BME280;11144;43.030;25.108;2024-03-06T00:33:30;99264.63;;;7.96;77.73
21960;BME280;11144;43.030;25.108;2024-03-06T00:35:03;99258.59;;;7.96;77.86
21960;BME280;11144;43.030;25.108;2024-03-06T00:36:37;99259.41;;;7.96;77.79
21960;BME280;11144;43.030;25.108;2024-03-06T00:38:11;99268.84;;;7.97;77.87
21960;BME280;11144;43.030;25.108;2024-03-06T00:39:45;99263.13;;;8.02;77.81
21960;BME280;11144;43.030;25.108;2024-03-06T00:41:18;99259.06;;;7.99;77.69
21960;BME280;11144;43.030;25.108;2024-03-06T00:42:52;99256.81;;;7.96;77.92
21960;BME280;11144;43.030;25.108;2024-03-06T00:44:24;99263.00;;;7.95;78.13
21960;BME280;11144;43.030;25.108;2024-03-06T00:45:57;99256.94;;;7.95;77.95
21960;BME280;11144;43.030;25.108;2024-03-06T00:47:31;99260.06;;;7.98;77.71
21960;BME280;11144;43.030;25.108;2024-03-06T00:49:06;99265.44;;;7.97;77.96
21960;BME280;11144;43.030;25.108;2024-03-06T00:50:39;99258.41;;;7.97;78.02
21960;BME280;11144;43.030;25.108;2024-03-06T00:52:12;99262.50;;;8.00;78.20
21960;BME280;11144;43.030;25.108;2024-03-06T00:53:46;99260.72;;;8.00;77.85
21960;BME280;11144;43.030;25.108;2024-03-06T00:55:19;99260.72;;;8.00;77.91
21960;BME280;11144;43.030;25.108;2024-03-06T00:56:52;99259.72;;;8.01;77.73
21960;BME280;11144;43.030;25.108;2024-03-06T00:58:25;99262.00;;;8.04;77.79
21960;BME280;11144;43.030;25.108;2024-03-06T00:59:57;99258.75;;;8.02;77.87
21960;BME280;11144;43.030;25.108;2024-03-06T01:01:31;99265.25;;;8.06;77.89
21960;BME280;11144;43.030;25.108;2024-03-06T01:03:04;99268.38;;;8.02;77.76
21960;BME280;11144;43.030;25.108;2024-03-06T01:04:37;99269.84;;;8.04;77.84
21960;BME280;11144;43.030;25.108;2024-03-06T01:06:11;99270.66;;;8.05;77.71
21960;BME280;11144;43.030;25.108;2024-03-06T01:07:43;99255.81;;;7.97;77.54
21960;BME280;11144;43.030;25.108;2024-03-06T01:09:18;99275.56;;;8.00;77.61
21960;BME280;11144;43.030;25.108;2024-03-06T01:10:51;99267.06;;;7.98;78.30
21960;BME280;11144;43.030;25.108;2024-03-06T01:12:24;99269.50;;;7.99;78.04
21960;BME280;11144;43.030;25.108;2024-03-06T01:13:57;99271.16;;;8.00;78.05
21960;BME280;11144;43.030;25.108;2024-03-06T01:15:30;99272.13;;;7.99;77.94
21960;BME280;11144;43.030;25.108;2024-03-06T01:17:04;99263.97;;;7.94;78.15
21960;BME280;11144;43.030;25.108;2024-03-06T01:18:38;99272.78;;;7.93;78.17
21960;BME280;11144;43.030;25.108;2024-03-06T01:20:11;99269.19;;;7.86;78.64
21960;BME280;11144;43.030;25.108;2024-03-06T01:21:44;99275.06;;;7.88;78.43
21960;BME280;11144;43.030;25.108;2024-03-06T01:23:17;99275.41;;;7.85;78.75
21960;BME280;11144;43.030;25.108;2024-03-06T01:24:51;99268.88;;;7.81;78.25
21960;BME280;11144;43.030;25.108;2024-03-06T01:26:24;99263.03;;;7.71;78.44
21960;BME280;11144;43.030;25.108;2024-03-06T01:27:56;99273.47;;;7.71;78.71
21960;BME280;11144;43.030;25.108;2024-03-06T01:29:30;99281.28;;;7.71;79.01
21960;BME280;11144;43.030;25.108;2024-03-06T01:31:02;99284.88;;;7.70;79.02
21960;BME280;11144;43.030;25.108;2024-03-06T01:32:35;99289.75;;;7.73;79.04
21960;BME280;11144;43.030;25.108;2024-03-06T01:34:09;99289.78;;;7.65;79.23
21960;BME280;11144;43.030;25.108;2024-03-06T01:35:42;99283.09;;;7.63;78.91
21960;BME280;11144;43.030;25.108;2024-03-06T01:37:15;99294.00;;;7.66;79.04
21960;BME280;11144;43.030;25.108;2024-03-06T01:38:48;99292.03;;;7.68;79.10
21960;BME280;11144;43.030;25.108;2024-03-06T01:40:22;99290.44;;;7.67;78.50
21960;BME280;11144;43.030;25.108;2024-03-06T01:41:56;99296.59;;;7.66;78.79
21960;BME280;11144;43.030;25.108;2024-03-06T01:43:28;99300.69;;;7.69;78.92
21960;BME280;11144;43.030;25.108;2024-03-06T01:45:02;99305.91;;;7.69;79.01
21960;BME280;11144;43.030;25.108;2024-03-06T01:46:35;99299.88;;;7.68;79.35
21960;BME280;11144;43.030;25.108;2024-03-06T01:48:09;99299.22;;;7.66;79.47
21960;BME280;11144;43.030;25.108;2024-03-06T01:49:41;99299.88;;;7.68;79.24
21960;BME280;11144;43.030;25.108;2024-03-06T01:51:16;99297.91;;;7.70;79.40
21960;BME280;11144;43.030;25.108;2024-03-06T01:52:50;99296.78;;;7.73;79.19
21960;BME280;11144;43.030;25.108;2024-03-06T01:54:24;99298.41;;;7.74;79.14
21960;BME280;11144;43.030;25.108;2024-03-06T01:55:58;99292.69;;;7.70;79.11
21960;BME280;11144;43.030;25.108;2024-03-06T01:57:33;99286.34;;;7.65;79.04
21960;BME280;11144;43.030;25.108;2024-03-06T01:59:06;99297.25;;;7.68;79.17
21960;BME280;11144;43.030;25.108;2024-03-06T02:00:41;99296.94;;;7.71;79.13
21960;BME280;11144;43.030;25.108;2024-03-06T02:02:14;99293.34;;;7.72;79.17
21960;BME280;11144;43.030;25.108;2024-03-06T02:03:47;99294.81;;;7.75;79.19
21960;BME280;11144;43.030;25.108;2024-03-06T02:05:20;99292.72;;;7.78;79.25
21960;BME280;11144;43.030;25.108;2024-03-06T02:06:54;99296.78;;;7.81;78.97
21960;BME280;11144;43.030;25.108;2024-03-06T02:08:26;99296.63;;;7.82;78.63
21960;BME280;11144;43.030;25.108;2024-03-06T02:09:59;99290.75;;;7.80;78.70
21960;BME280;11144;43.030;25.108;2024-03-06T02:11:34;99292.72;;;7.78;78.89
21960;BME280;11144;43.030;25.108;2024-03-06T02:13:07;99302.81;;;7.73;78.59
21960;BME280;11144;43.030;25.108;2024-03-06T02:14:41;99300.84;;;7.75;78.48
21960;BME280;11144;43.030;25.108;2024-03-06T02:16:15;99299.88;;;7.76;78.61
21960;BME280;11144;43.030;25.108;2024-03-06T02:17:48;99301.16;;;7.72;78.52
21960;BME280;11144;43.030;25.108;2024-03-06T02:19:21;99302.81;;;7.73;78.71
21960;BME280;11144;43.030;25.108;2024-03-06T02:20:55;99304.59;;;7.73;78.54
21960;BME280;11144;43.030;25.108;2024-03-06T02:22:29;99307.38;;;7.71;78.75
21960;BME280;11144;43.030;25.108;2024-03-06T02:24:01;99306.38;;;7.72;78.51
21960;BME280;11144;43.030;25.108;2024-03-06T02:25:35;99301.34;;;7.71;78.53
21960;BME280;11144;43.030;25.108;2024-03-06T02:27:08;99307.38;;;7.71;78.60
21960;BME280;11144;43.030;25.108;2024-03-06T02:28:46;99313.56;;;7.70;78.62
21960;BME280;11144;43.030;25.108;2024-03-06T02:32:50;99305.09;;;7.68;78.35
21960;BME280;11144;43.030;25.108;2024-03-06T02:34:37;99317.00;;;7.71;78.44
21960;BME280;11144;43.030;25.108;2024-03-06T02:36:11;99312.91;;;7.68;78.73
21960;BME280;11144;43.030;25.108;2024-03-06T02:37:44;99313.44;;;7.72;78.82
21960;BME280;11144;43.030;25.108;2024-03-06T02:39:17;99317.16;;;7.69;78.41
21960;BME280;11144;43.030;25.108;2024-03-06T02:40:52;99317.81;;;7.71;78.60
21960;BME280;11144;43.030;25.108;2024-03-06T02:42:24;99328.09;;;7.73;78.61
21960;BME280;11144;43.030;25.108;2024-03-06T02:43:57;99329.56;;;7.75;78.57
21960;BME280;11144;43.030;25.108;2024-03-06T02:45:30;99323.88;;;7.72;78.46
21960;BME280;11144;43.030;25.108;2024-03-06T02:47:04;99325.47;;;7.73;78.71
21960;BME280;11144;43.030;25.108;2024-03-06T02:48:39;99329.72;;;7.74;78.79
21960;BME280;11144;43.030;25.108;2024-03-06T02:50:12;99338.03;;;7.77;78.80
21960;BME280;11144;43.030;25.108;2024-03-06T02:51:47;99336.56;;;7.75;78.54
21960;BME280;11144;43.030;25.108;2024-03-06T02:53:20;99339.69;;;7.78;78.73
21960;BME280;11144;43.030;25.108;2024-03-06T02:54:53;99338.84;;;7.78;78.70
21960;BME280;11144;43.030;25.108;2024-03-06T02:56:26;99335.09;;;7.80;78.67
21960;BME280;11144;43.030;25.108;2024-03-06T02:58:01;99336.72;;;7.81;78.79
21960;BME280;11144;43.030;25.108;2024-03-06T02:59:35;99329.72;;;7.82;78.66
21960;BME280;11144;43.030;25.108;2024-03-06T03:01:07;99329.91;;;7.80;78.64
21960;BME280;11144;43.030;25.108;2024-03-06T03:02:41;99336.41;;;7.84;78.76
21960;BME280;11144;43.030;25.108;2024-03-06T03:04:13;99337.72;;;7.80;78.49
21960;BME280;11144;43.030;25.108;2024-03-06T03:05:46;99337.06;;;7.78;78.57
21960;BME280;11144;43.030;25.108;2024-03-06T03:07:20;99335.25;;;7.79;78.85
21960;BME280;11144;43.030;25.108;2024-03-06T03:08:55;99334.63;;;7.85;78.63
21960;BME280;11144;43.030;25.108;2024-03-06T03:10:28;99331.66;;;7.88;78.52
21960;BME280;11144;43.030;25.108;2024-03-06T03:12:02;99330.22;;;7.93;78.48
21960;BME280;11144;43.030;25.108;2024-03-06T03:13:35;99335.44;;;7.93;78.58
21960;BME280;11144;43.030;25.108;2024-03-06T03:15:08;99325.97;;;7.92;78.56
21960;BME280;11144;43.030;25.108;2024-03-06T03:16:42;99330.53;;;7.98;78.54
21960;BME280;11144;43.030;25.108;2024-03-06T03:18:15;99330.53;;;7.98;78.53
21960;BME280;11144;43.030;25.108;2024-03-06T03:19:48;99328.59;;;8.00;78.29
21960;BME280;11144;43.030;25.108;2024-03-06T03:21:20;99327.59;;;8.01;78.26
21960;BME280;11144;43.030;25.108;2024-03-06T03:22:55;99312.75;;;7.94;78.26
21960;BME280;11144;43.030;25.108;2024-03-06T03:24:28;99314.88;;;7.98;78.28
21960;BME280;11144;43.030;25.108;2024-03-06T03:26:01;99324.00;;;8.02;78.13
21960;BME280;11144;43.030;25.108;2024-03-06T03:27:36;99325.31;;;7.98;78.13
21960;BME280;11144;43.030;25.108;2024-03-06T03:29:10;99314.88;;;7.98;78.12
21960;BME280;11144;43.030;25.108;2024-03-06T03:30:43;99335.56;;;8.08;78.11
21960;BME280;11144;43.030;25.108;2024-03-06T03:32:17;99334.78;;;8.07;78.09
21960;BME280;11144;43.030;25.108;2024-03-06T03:33:50;99331.50;;;8.05;77.90
21960;BME280;11144;43.030;25.108;2024-03-06T03:35:23;99335.09;;;8.04;77.88
21960;BME280;11144;43.030;25.108;2024-03-06T03:36:57;99328.72;;;8.07;78.01
21960;BME280;11144;43.030;25.108;2024-03-06T03:38:31;99332.16;;;8.07;78.20
21960;BME280;11144;43.030;25.108;2024-03-06T03:40:05;99333.78;;;8.08;77.83
21960;BME280;11144;43.030;25.108;2024-03-06T03:41:43;99336.88;;;8.12;77.92
21960;BME280;11144;43.030;25.108;2024-03-06T03:43:18;99340.16;;;8.14;77.83
21960;BME280;11144;43.030;25.108;2024-03-06T03:44:51;99341.13;;;8.13;77.93
21960;BME280;11144;43.030;25.108;2024-03-06T03:46:24;99335.72;;;8.14;77.78
21960;BME280;11144;43.030;25.108;2024-03-06T03:47:56;99340.81;;;8.16;77.99
21960;BME280;11144;43.030;25.108;2024-03-06T03:49:30;99334.13;;;8.13;77.96
21960;BME280;11144;43.030;25.108;2024-03-06T03:51:03;99343.25;;;8.17;77.93
21960;BME280;11144;43.030;25.108;2024-03-06T03:52:37;99340.63;;;8.17;77.95
21960;BME280;11144;43.030;25.108;2024-03-06T03:54:15;99342.59;;;8.15;77.61
21960;BME280;11144;43.030;25.108;2024-03-06T03:55:49;99348.47;;;8.17;77.95
21960;BME280;11144;43.030;25.108;2024-03-06T03:57:22;99347.50;;;8.18;77.85
21960;BME280;11144;43.030;25.108;2024-03-06T03:58:56;99347.50;;;8.18;77.70
21960;BME280;11144;43.030;25.108;2024-03-06T04:00:28;99343.25;;;8.17;77.66
21960;BME280;11144;43.030;25.108;2024-03-06T04:02:03;99344.22;;;8.16;77.72
21960;BME280;11144;43.030;25.108;2024-03-06T04:03:36;99338.84;;;8.18;77.63
21960;BME280;11144;43.030;25.108;2024-03-06T04:05:09;99349.94;;;8.20;77.67
21960;BME280;11144;43.030;25.108;2024-03-06T04:06:42;99339.34;;;8.13;77.32
21960;BME280;11144;43.030;25.108;2024-03-06T04:08:17;99356.28;;;8.17;77.45
21960;BME280;11144;43.030;25.108;2024-03-06T04:09:51;99353.84;;;8.16;77.45
21960;BME280;11144;43.030;25.108;2024-03-06T04:11:25;99357.13;;;8.18;77.27
21960;BME280;11144;43.030;25.108;2024-03-06T04:12:57;99354.00;;;8.14;77.33
21960;BME280;11144;43.030;25.108;2024-03-06T04:14:32;99357.63;;;8.13;77.28
21960;BME280;11144;43.030;25.108;2024-03-06T04:16:05;99354.34;;;8.11;77.43
21960;BME280;11144;43.030;25.108;2024-03-06T04:17:39;99358.09;;;8.09;77.46
21960;BME280;11144;43.030;25.108;2024-03-06T04:19:13;99344.53;;;8.05;77.36
21960;BME280;11144;43.030;25.108;2024-03-06T04:20:47;99349.28;;;8.10;77.42
21960;BME280;11144;43.030;25.108;2024-03-06T04:22:19;99362.66;;;8.15;77.41
21960;BME280;11144;43.030;25.108;2024-03-06T04:23:52;99355.00;;;8.13;77.31
21960;BME280;11144;43.030;25.108;2024-03-06T04:25:26;99364.63;;;8.13;77.55
21960;BME280;11144;43.030;25.108;2024-03-06T04:27:00;99362.97;;;8.12;77.56
21960;BME280;11144;43.030;25.108;2024-03-06T04:28:32;99362.19;;;8.11;77.33
21960;BME280;11144;43.030;25.108;2024-03-06T04:30:07;99357.28;;;8.08;77.32
21960;BME280;11144;43.030;25.108;2024-03-06T04:31:39;99366.44;;;8.04;77.36
21960;BME280;11144;43.030;25.108;2024-03-06T04:33:13;99361.69;;;8.08;77.50
21960;BME280;11144;43.030;25.108;2024-03-06T04:34:47;99351.88;;;8.10;77.50
21960;BME280;11144;43.030;25.108;2024-03-06T04:36:20;99351.22;;;8.08;77.46
21960;BME280;11144;43.030;25.108;2024-03-06T04:37:54;99356.78;;;8.13;77.48
21960;BME280;11144;43.030;25.108;2024-03-06T04:39:26;99360.22;;;8.13;77.33
21960;BME280;11144;43.030;25.108;2024-03-06T04:41:01;99360.22;;;8.13;77.37
21960;BME280;11144;43.030;25.108;2024-03-06T04:42:34;99355.97;;;8.12;77.26
21960;BME280;11144;43.030;25.108;2024-03-06T04:44:08;99352.88;;;8.09;77.36
21960;BME280;11144;43.030;25.108;2024-03-06T04:45:41;99351.59;;;8.05;77.33
21960;BME280;11144;43.030;25.108;2024-03-06T04:47:14;99364.16;;;8.09;77.36
21960;BME280;11144;43.030;25.108;2024-03-06T04:48:47;99354.34;;;8.03;77.15
21960;BME280;11144;43.030;25.108;2024-03-06T04:50:20;99367.56;;;8.10;77.32
21960;BME280;11144;43.030;25.108;2024-03-06T04:51:54;99357.09;;;8.10;77.49
21960;BME280;11144;43.030;25.108;2024-03-06T04:53:27;99364.44;;;8.14;77.53
21960;BME280;11144;43.030;25.108;2024-03-06T04:55:00;99365.09;;;8.16;77.25
21960;BME280;11144;43.030;25.108;2024-03-06T04:56:34;99362.34;;;8.18;77.30
21960;BME280;11144;43.030;25.108;2024-03-06T04:58:07;99365.91;;;8.17;77.01
21960;BME280;11144;43.030;25.108;2024-03-06T04:59:40;99361.84;;;8.14;77.21
21960;BME280;11144;43.030;25.108;2024-03-06T05:01:13;99366.41;;;8.12;77.25
21960;BME280;11144;43.030;25.108;2024-03-06T05:02:47;99367.41;;;8.11;77.33
21960;BME280;11144;43.030;25.108;2024-03-06T05:04:39;99367.06;;;8.14;77.19
21960;BME280;11144;43.030;25.108;2024-03-06T05:06:29;99362.97;;;8.12;77.25
21960;BME280;11144;43.030;25.108;2024-03-06T05:08:19;99370.97;;;8.10;76.88
21960;BME280;11144;43.030;25.108;2024-03-06T05:10:10;99364.47;;;8.06;76.86
21960;BME280;11144;43.030;25.108;2024-03-06T05:12:02;99365.13;;;8.08;76.94
21960;BME280;11144;43.030;25.108;2024-03-06T05:13:52;99371.34;;;8.07;77.05
21960;BME280;11144;43.030;25.108;2024-03-06T05:15:43;99371.34;;;8.07;77.02
21960;BME280;11144;43.030;25.108;2024-03-06T05:17:33;99368.88;;;8.06;77.14
21960;BME280;11144;43.030;25.108;2024-03-06T05:19:23;99371.97;;;8.01;77.03
21960;BME280;11144;43.030;25.108;2024-03-06T05:21:20;99372.63;;;8.03;77.08
21960;BME280;11144;43.030;25.108;2024-03-06T05:23:12;99369.53;;;8.00;77.12
21960;BME280;11144;43.030;25.108;2024-03-06T05:25:04;99377.84;;;7.95;76.98
21960;BME280;11144;43.030;25.108;2024-03-06T05:26:55;99384.19;;;7.93;77.14
21960;BME280;11144;43.030;25.108;2024-03-06T05:28:47;99386.00;;;7.92;77.13
21960;BME280;11144;43.030;25.108;2024-03-06T05:30:38;99372.63;;;7.87;77.21
21960;BME280;11144;43.030;25.108;2024-03-06T05:32:28;99390.59;;;7.98;77.20
21960;BME280;11144;43.030;25.108;2024-03-06T05:34:19;99390.25;;;8.01;77.18
21960;BME280;11144;43.030;25.108;2024-03-06T05:36:09;99397.25;;;8.01;77.14
21960;BME280;11144;43.030;25.108;2024-03-06T05:37:59;99399.06;;;8.00;77.08
21960;BME280;11144;43.030;25.108;2024-03-06T05:39:49;99391.88;;;7.94;77.28
21960;BME280;11144;43.030;25.108;2024-03-06T05:41:40;99394.31;;;7.96;77.33
21960;BME280;11144;43.030;25.108;2024-03-06T05:43:31;99396.44;;;8.00;77.35
21960;BME280;11144;43.030;25.108;2024-03-06T05:45:23;99404.13;;;8.02;77.39
21960;BME280;11144;43.030;25.108;2024-03-06T05:47:14;99404.75;;;8.12;77.41
21960;BME280;11144;43.030;25.108;2024-03-06T05:49:05;99410.31;;;8.17;77.03
21960;BME280;11144;43.030;25.108;2024-03-06T05:50:58;99418.47;;;8.22;77.23
21960;BME280;11144;43.030;25.108;2024-03-06T05:52:47;99411.16;;;8.26;77.18
21960;BME280;11144;43.030;25.108;2024-03-06T05:54:38;99416.06;;;8.29;77.18
21960;BME280;11144;43.030;25.108;2024-03-06T05:56:29;99419.66;;;8.36;77.03
21960;BME280;11144;43.030;25.108;2024-03-06T05:58:19;99416.69;;;8.39;76.95
21960;BME280;11144;43.030;25.108;2024-03-06T05:59:53;99416.69;;;8.39;76.78
21960;BME280;11144;43.030;25.108;2024-03-06T06:01:27;99419.97;;;8.41;76.67
21960;BME280;11144;43.030;25.108;2024-03-06T06:03:00;99421.59;;;8.42;77.02
21960;BME280;11144;43.030;25.108;2024-03-06T06:04:32;99421.59;;;8.42;76.90
21960;BME280;11144;43.030;25.108;2024-03-06T06:06:18;99417.66;;;8.46;76.88
21960;BME280;11144;43.030;25.108;2024-03-06T06:07:51;99427.81;;;8.49;76.87
21960;BME280;11144;43.030;25.108;2024-03-06T06:09:24;99425.84;;;8.51;76.73
21960;BME280;11144;43.030;25.108;2024-03-06T06:10:57;99429.75;;;8.55;76.66
21960;BME280;11144;43.030;25.108;2024-03-06T06:12:30;99423.56;;;8.56;76.70
21960;BME280;11144;43.030;25.108;2024-03-06T06:14:03;99421.59;;;8.58;76.62
21960;BME280;11144;43.030;25.108;2024-03-06T06:15:37;99424.84;;;8.60;76.64
21960;BME280;11144;43.030;25.108;2024-03-06T06:17:12;99425.31;;;8.63;76.71
21960;BME280;11144;43.030;25.108;2024-03-06T06:18:45;99420.25;;;8.62;76.74
21960;BME280;11144;43.030;25.108;2024-03-06T06:20:19;99415.06;;;8.54;76.59
21960;BME280;11144;43.030;25.108;2024-03-06T06:21:51;99424.19;;;8.58;76.62
21960;BME280;11144;43.030;25.108;2024-03-06T06:23:25;99423.19;;;8.59;76.53
21960;BME280;11144;43.030;25.108;2024-03-06T06:24:58;99425.66;;;8.60;76.40
21960;BME280;11144;43.030;25.108;2024-03-06T06:26:31;99428.09;;;8.62;76.26
21960;BME280;11144;43.030;25.108;2024-03-06T06:28:04;99425.81;;;8.59;76.17
21960;BME280;11144;43.030;25.108;2024-03-06T06:29:38;99437.25;;;8.66;76.34
21960;BME280;11144;43.030;25.108;2024-03-06T06:31:10;99434.78;;;8.72;76.29
21960;BME280;11144;43.030;25.108;2024-03-06T06:32:45;99434.91;;;8.79;76.17
21960;BME280;11144;43.030;25.108;2024-03-06T06:34:17;99436.06;;;8.84;76.17
21960;BME280;11144;43.030;25.108;2024-03-06T06:35:51;99439.97;;;8.88;76.22
21960;BME280;11144;43.030;25.108;2024-03-06T06:37:23;99434.75;;;8.88;75.87
21960;BME280;11144;43.030;25.108;2024-03-06T06:38:57;99438.19;;;8.89;76.10
21960;BME280;11144;43.030;25.108;2024-03-06T06:40:30;99419.75;;;8.82;75.90
21960;BME280;11144;43.030;25.108;2024-03-06T06:42:04;99439.16;;;8.88;76.07
21960;BME280;11144;43.030;25.108;2024-03-06T06:43:37;99439.16;;;8.88;75.83
21960;BME280;11144;43.030;25.108;2024-03-06T06:45:09;99434.75;;;8.88;75.85
21960;BME280;11144;43.030;25.108;2024-03-06T06:46:43;99435.22;;;8.92;75.78
21960;BME280;11144;43.030;25.108;2024-03-06T06:48:16;99439.28;;;8.95;75.76
21960;BME280;11144;43.030;25.108;2024-03-06T06:49:50;99438.47;;;8.94;75.87
21960;BME280;11144;43.030;25.108;2024-03-06T06:51:22;99439.28;;;8.95;75.81
21960;BME280;11144;43.030;25.108;2024-03-06T06:52:56;99447.31;;;8.93;75.84
21960;BME280;11144;43.030;25.108;2024-03-06T06:54:31;99447.78;;;8.97;75.96
21960;BME280;11144;43.030;25.108;2024-03-06T06:56:05;99445.81;;;8.99;75.83
21960;BME280;11144;43.030;25.108;2024-03-06T06:57:37;99444.03;;;8.99;75.73
21960;BME280;11144;43.030;25.108;2024-03-06T06:59:11;99446.31;;;9.02;75.78
21960;BME280;11144;43.030;25.108;2024-03-06T07:00:45;99449.22;;;9.07;75.90
21960;BME280;11144;43.030;25.108;2024-03-06T07:02:19;99453.47;;;9.08;75.78
21960;BME280;11144;43.030;25.108;2024-03-06T07:03:52;99450.88;;;9.08;75.66
21960;BME280;11144;43.030;25.108;2024-03-06T07:05:26;99446.97;;;9.04;75.57
21960;BME280;11144;43.030;25.108;2024-03-06T07:06:58;99458.38;;;9.03;75.79
21960;BME280;11144;43.030;25.108;2024-03-06T07:08:32;99456.13;;;9.00;75.77
21960;BME280;11144;43.030;25.108;2024-03-06T07:10:05;99457.91;;;9.00;75.83
21960;BME280;11144;43.030;25.108;2024-03-06T07:11:38;99460.22;;;8.95;76.09
21960;BME280;11144;43.030;25.108;2024-03-06T07:13:11;99459.25;;;8.96;75.79
21960;BME280;11144;43.030;25.108;2024-03-06T07:14:44;99453.19;;;8.95;75.79
21960;BME280;11144;43.030;25.108;2024-03-06T07:16:17;99461.84;;;8.96;75.81
21960;BME280;11144;43.030;25.108;2024-03-06T07:17:51;99457.59;;;8.95;75.60
21960;BME280;11144;43.030;25.108;2024-03-06T07:19:26;99452.03;;;8.98;75.71
21960;BME280;11144;43.030;25.108;2024-03-06T07:20:59;99453.84;;;8.97;75.66
21960;BME280;11144;43.030;25.108;2024-03-06T07:22:32;99461.19;;;9.02;75.84
21960;BME280;11144;43.030;25.108;2024-03-06T07:24:06;99456.41;;;9.05;75.73
21960;BME280;11144;43.030;25.108;2024-03-06T07:25:39;99460.84;;;9.05;75.71
21960;BME280;11144;43.030;25.108;2024-03-06T07:27:12;99457.59;;;9.03;75.57
21960;BME280;11144;43.030;25.108;2024-03-06T07:28:45;99449.56;;;9.04;75.65
21960;BME280;11144;43.030;25.108;2024-03-06T07:30:18;99462.97;;;9.01;75.89
21960;BME280;11144;43.030;25.108;2024-03-06T07:31:51;99459.34;;;9.10;75.78
21960;BME280;11144;43.030;25.108;2024-03-06T07:33:25;99456.69;;;9.18;75.57
21960;BME280;11144;43.030;25.108;2024-03-06T07:35:00;99462.88;;;9.25;75.53
21960;BME280;11144;43.030;25.108;2024-03-06T07:36:33;99458.94;;;9.29;75.16
21960;BME280;11144;43.030;25.108;2024-03-06T07:38:06;99460.72;;;9.37;74.91
21960;BME280;11144;43.030;25.108;2024-03-06T07:39:39;99460.88;;;9.43;75.16
21960;BME280;11144;43.030;25.108;2024-03-06T07:41:12;99459.19;;;9.50;75.03
21960;BME280;11144;43.030;25.108;2024-03-06T07:42:45;99461.13;;;9.56;74.91
21960;BME280;11144;43.030;25.108;2024-03-06T07:44:18;99458.63;;;9.63;75.06
21960;BME280;11144;43.030;25.108;2024-03-06T07:45:52;99459.06;;;9.75;74.87
21960;BME280;11144;43.030;25.108;2024-03-06T07:47:24;99456.28;;;9.76;74.38
21960;BME280;11144;43.030;25.108;2024-03-06T07:48:58;99460.72;;;9.76;73.98
21960;BME280;11144;43.030;25.108;2024-03-06T07:50:31;99468.03;;;9.80;74.25
21960;BME280;11144;43.030;25.108;2024-03-06T07:52:05;99466.72;;;9.84;74.09
21960;BME280;11144;43.030;25.108;2024-03-06T07:53:37;99460.47;;;9.85;74.32
21960;BME280;11144;43.030;25.108;2024-03-06T07:55:10;99458.84;;;9.84;74.05
21960;BME280;11144;43.030;25.108;2024-03-06T07:56:43;99454.41;;;9.62;73.95
21960;BME280;11144;43.030;25.108;2024-03-06T07:58:16;99464.50;;;9.65;74.15
21960;BME280;11144;43.030;25.108;2024-03-06T07:59:49;99464.69;;;9.63;74.19
21960;BME280;11144;43.030;25.108;2024-03-06T08:01:26;99469.28;;;9.61;74.05
21960;BME280;11144;43.030;25.108;2024-03-06T08:03:01;99472.41;;;9.57;73.99
21960;BME280;11144;43.030;25.108;2024-03-06T08:04:34;99472.75;;;9.54;74.00
21960;BME280;11144;43.030;25.108;2024-03-06T08:06:09;99462.50;;;9.44;73.85
21960;BME280;11144;43.030;25.108;2024-03-06T08:07:42;99470.50;;;9.51;74.14
21960;BME280;11144;43.030;25.108;2024-03-06T08:09:17;99476.38;;;9.45;73.83
21960;BME280;11144;43.030;25.108;2024-03-06T08:10:49;99476.88;;;9.40;74.13
21960;BME280;11144;43.030;25.108;2024-03-06T08:12:23;99475.97;;;9.33;73.83
21960;BME280;11144;43.030;25.108;2024-03-06T08:13:57;99477.75;;;9.33;73.99
21960;BME280;11144;43.030;25.108;2024-03-06T08:15:30;99478.88;;;9.38;74.13
21960;BME280;11144;43.030;25.108;2024-03-06T08:17:03;99480.84;;;9.36;73.92
21960;BME280;11144;43.030;25.108;2024-03-06T08:18:36;99484.47;;;9.35;73.87
21960;BME280;11144;43.030;25.108;2024-03-06T08:20:10;99478.56;;;9.33;73.88
21960;BME280;11144;43.030;25.108;2024-03-06T08:21:45;99479.22;;;9.35;74.02
21960;BME280;11144;43.030;25.108;2024-03-06T08:23:19;99477.56;;;9.34;73.88
21960;BME280;11144;43.030;25.108;2024-03-06T08:24:52;99482.66;;;9.36;74.02
21960;BME280;11144;43.030;25.108;2024-03-06T08:26:25;99481.97;;;9.34;73.95